createdAt,value
2023-05-17T00:00:17.720Z,95606.88
2023-05-17T00:02:49.155Z,95614.19
2023-05-17T00:05:20.834Z,95613.22
2023-05-17T00:07:52.601Z,95618.44
2023-05-17T00:10:23.976Z,95623.94
2023-05-17T00:12:55.399Z,95625.09
2023-05-17T00:15:27.089Z,95624.25
2023-05-17T00:17:58.793Z,95625.97
2023-05-17T00:20:30.364Z,95627.75
2023-05-17T00:23:03.146Z,95635.88
2023-05-17T00:25:35.547Z,95629.63
2023-05-17T00:28:06.968Z,95641.72
2023-05-17T00:30:38.377Z,95639.56
2023-05-17T00:33:10.117Z,95643.06
2023-05-17T00:35:41.566Z,95635.94
2023-05-17T00:38:15.172Z,95642.13
2023-05-17T00:40:46.604Z,95641.84
2023-05-17T00:43:18.106Z,95646.97
2023-05-17T00:45:51.885Z,95645.31
2023-05-17T00:48:26.660Z,95640.13
2023-05-17T00:51:00.094Z,95644.19
2023-05-17T00:53:31.650Z,95648.56
2023-05-17T00:56:05.097Z,95652.31
2023-05-17T00:58:37.131Z,95648.41
2023-05-17T01:01:09.128Z,95651.66
2023-05-17T01:03:40.737Z,95651.91
2023-05-17T01:06:13.253Z,95657.06
2023-05-17T01:08:45.249Z,95656.72
2023-05-17T01:11:36.336Z,95653.09
2023-05-17T01:14:26.660Z,95654.75
2023-05-17T01:17:02.704Z,95650.78
2023-05-17T01:19:43.774Z,95653.78
2023-05-17T01:22:33.243Z,95657.28
2023-05-17T01:25:10.846Z,95651.97
2023-05-17T01:27:45.268Z,95657.13
2023-05-17T01:30:19.642Z,95662.53
2023-05-17T01:32:53.684Z,95669.63
2023-05-17T01:35:25.472Z,95670.81
2023-05-17T01:37:56.991Z,95670.75
2023-05-17T01:40:29.592Z,95678.44
2023-05-17T01:43:24.281Z,95676.22
2023-05-17T01:46:13.714Z,95674.78
2023-05-17T01:48:50.010Z,95671.94
2023-05-17T01:51:24.063Z,95670.66
2023-05-17T01:54:02.159Z,95667.06
2023-05-17T01:56:34.694Z,95673.06
2023-05-17T01:59:07.399Z,95680.41
2023-05-17T02:01:39.543Z,95676.66
2023-05-17T02:04:11.232Z,95678.44
2023-05-17T02:06:43.709Z,95683.53
2023-05-17T02:09:15.143Z,95684.94
2023-05-17T02:11:46.755Z,95672.22
2023-05-17T02:14:19.485Z,95683.69
2023-05-17T02:16:50.871Z,95678.75
2023-05-17T02:19:23.709Z,95682.81
2023-05-17T02:21:55.726Z,95686.16
2023-05-17T02:24:28.328Z,95687.63
2023-05-17T02:26:59.769Z,95695.28
2023-05-17T02:29:31.809Z,95691.06
2023-05-17T02:32:03.833Z,95685.88
2023-05-17T02:34:35.312Z,95688.06
2023-05-17T02:37:07.016Z,95688.00
2023-05-17T02:39:39.662Z,95703.25
2023-05-17T02:42:11.221Z,95697.50
2023-05-17T02:44:42.681Z,95690.72
2023-05-17T02:47:15.134Z,95693.16
2023-05-17T02:49:49.968Z,95694.84
2023-05-17T02:52:21.342Z,95698.53
2023-05-17T02:54:52.812Z,95708.94
2023-05-17T02:57:24.523Z,95705.47
2023-05-17T02:59:55.903Z,95704.78
2023-05-17T03:02:27.445Z,95703.16
2023-05-17T03:04:58.881Z,95710.41
2023-05-17T03:07:30.764Z,95722.59
2023-05-17T03:10:02.483Z,95720.06
2023-05-17T03:12:33.943Z,95725.16
2023-05-17T03:15:05.588Z,95728.78
2023-05-17T03:17:37.053Z,95728.63
2023-05-17T03:20:10.194Z,95732.22
2023-05-17T03:22:41.597Z,95739.47
2023-05-17T03:25:14.035Z,95736.44
2023-05-17T03:27:45.969Z,95745.97
2023-05-17T03:30:17.875Z,95741.41
2023-05-17T03:32:49.483Z,95741.28
2023-05-17T03:35:24.252Z,95747.38
2023-05-17T03:37:56.053Z,95755.78
2023-05-17T03:40:27.799Z,95757.50
2023-05-17T03:42:59.380Z,95758.53
2023-05-17T03:45:31.110Z,95759.84
2023-05-17T03:48:03.944Z,95764.78
2023-05-17T03:50:35.541Z,95775.16
2023-05-17T03:53:07.458Z,95773.56
2023-05-17T03:55:38.907Z,95775.25
2023-05-17T03:58:11.069Z,95773.66
2023-05-17T04:00:42.490Z,95784.13
2023-05-17T04:03:13.992Z,95786.53
2023-05-17T04:05:46.607Z,95795.47
2023-05-17T04:08:19.103Z,95788.63
2023-05-17T04:10:50.480Z,95799.91
2023-05-17T04:13:22.015Z,95803.47
2023-05-17T04:15:53.688Z,95802.84
2023-05-17T04:18:25.242Z,95802.97
2023-05-17T04:20:56.870Z,95805.72
2023-05-17T04:23:29.874Z,95812.91
2023-05-17T04:26:01.643Z,95810.44
2023-05-17T04:28:34.996Z,95818.50
2023-05-17T04:31:07.323Z,95816.47
2023-05-17T04:33:38.793Z,95820.34
2023-05-17T04:36:10.227Z,95821.06
2023-05-17T04:38:41.757Z,95827.56
2023-05-17T04:41:13.620Z,95826.28
2023-05-17T04:43:45.385Z,95831.25
2023-05-17T04:46:16.801Z,95834.09
2023-05-17T04:48:48.363Z,95832.69
2023-05-17T04:51:19.852Z,95845.00
2023-05-17T04:53:51.457Z,95841.31
2023-05-17T04:56:22.905Z,95848.03
2023-05-17T04:58:54.276Z,95844.53
2023-05-17T05:01:25.698Z,95845.41
2023-05-17T05:03:58.101Z,95846.41
2023-05-17T05:06:29.522Z,95850.13
2023-05-17T05:09:01.448Z,95855.31
2023-05-17T05:11:33.233Z,95858.34
2023-05-17T05:14:05.012Z,95856.84
2023-05-17T05:16:36.718Z,95876.28
2023-05-17T05:19:09.476Z,95866.75
2023-05-17T05:21:41.012Z,95860.06
2023-05-17T05:24:12.561Z,95864.06
2023-05-17T05:26:44.853Z,95874.88
2023-05-17T05:29:16.223Z,95872.25
2023-05-17T05:31:47.771Z,95880.38
2023-05-17T05:34:19.143Z,95870.34
2023-05-17T05:36:50.901Z,95882.16
2023-05-17T05:39:22.983Z,95882.81
2023-05-17T05:41:54.417Z,95882.16
2023-05-17T05:44:26.078Z,95879.72
2023-05-17T05:46:57.632Z,95888.25
2023-05-17T05:49:29.167Z,95881.66
2023-05-17T05:52:00.894Z,95877.63
2023-05-17T05:54:32.635Z,95876.00
2023-05-17T05:57:04.209Z,95876.59
2023-05-17T05:59:35.593Z,95884.53
2023-05-17T06:02:07.359Z,95881.19
2023-05-17T06:04:45.356Z,95878.34
2023-05-17T06:07:17.491Z,95879.13
2023-05-17T06:09:49.464Z,95886.53
2023-05-17T06:12:21.081Z,95884.81
2023-05-17T06:14:52.466Z,95893.88
2023-05-17T06:17:24.045Z,95898.34
2023-05-17T06:19:55.652Z,95898.97
2023-05-17T06:22:27.232Z,95905.63
2023-05-17T06:24:58.687Z,95901.03
2023-05-17T06:27:31.976Z,95898.91
2023-05-17T06:30:07.138Z,95901.13
2023-05-17T06:32:39.739Z,95910.06
2023-05-17T06:35:11.266Z,95905.25
2023-05-17T06:37:43.070Z,95907.69
2023-05-17T06:40:16.747Z,95909.91
2023-05-17T06:42:48.576Z,95910.66
2023-05-17T06:45:20.329Z,95912.44
2023-05-17T06:47:54.180Z,95917.13
2023-05-17T06:50:28.696Z,95925.66
2023-05-17T06:53:00.500Z,95920.84
2023-05-17T06:55:32.291Z,95928.53
2023-05-17T06:58:06.372Z,95926.59
2023-05-17T07:00:37.785Z,95930.13
2023-05-17T07:03:10.108Z,95926.75
2023-05-17T07:05:41.748Z,95925.09
2023-05-17T07:08:13.269Z,95931.13
2023-05-17T07:10:44.742Z,95935.72
2023-05-17T07:13:16.288Z,95936.19
2023-05-17T07:15:47.777Z,95937.31
2023-05-17T07:18:19.299Z,95944.72
2023-05-17T07:20:50.805Z,95938.13
2023-05-17T07:23:22.348Z,95934.75
2023-05-17T07:25:53.818Z,95939.97
2023-05-17T07:28:25.321Z,95944.94
2023-05-17T07:30:58.220Z,95945.41
2023-05-17T07:33:29.629Z,95944.78
2023-05-17T07:36:01.316Z,95946.28
2023-05-17T07:38:35.460Z,95946.34
2023-05-17T07:41:10.575Z,95955.34
2023-05-17T07:43:42.287Z,95948.56
2023-05-17T07:46:13.879Z,95948.22
2023-05-17T07:48:45.737Z,95941.03
2023-05-17T07:51:17.581Z,95941.44
2023-05-17T07:53:49.423Z,95942.16
2023-05-17T07:56:20.952Z,95940.16
2023-05-17T07:58:52.859Z,95941.13
2023-05-17T08:01:25.172Z,95933.16
2023-05-17T08:03:56.662Z,95935.09
2023-05-17T08:06:28.163Z,95938.00
2023-05-17T08:09:00.886Z,95940.81
2023-05-17T08:11:35.457Z,95944.00
2023-05-17T08:14:06.911Z,95936.13
2023-05-17T08:16:41.091Z,95933.84
2023-05-17T08:19:13.444Z,95942.31
2023-05-17T08:21:46.445Z,95947.94
2023-05-17T08:24:18.081Z,95945.22
2023-05-17T08:26:49.699Z,95947.22
2023-05-17T08:29:21.166Z,95948.94
2023-05-17T08:31:54.231Z,95948.00
2023-05-17T08:34:26.252Z,95959.84
2023-05-17T08:36:58.935Z,95953.19
2023-05-17T08:39:31.831Z,95953.16
2023-05-17T08:42:07.118Z,95958.84
2023-05-17T08:44:38.985Z,95949.72
2023-05-17T08:47:11.304Z,95946.28
2023-05-17T08:49:43.158Z,95953.78
2023-05-17T08:52:16.140Z,95953.94
2023-05-17T08:54:48.676Z,95952.50
2023-05-17T08:57:20.353Z,95959.88
2023-05-17T08:59:53.494Z,95962.09
2023-05-17T09:02:25.919Z,95958.34
2023-05-17T09:04:57.649Z,95963.47
2023-05-17T09:07:29.200Z,95975.81
2023-05-17T09:10:00.752Z,95972.13
2023-05-17T09:12:35.411Z,95970.91
2023-05-17T09:15:20.083Z,95972.78
2023-05-17T09:17:52.517Z,95977.03
2023-05-17T09:20:24.943Z,95975.38
2023-05-17T09:22:57.809Z,95972.69
2023-05-17T09:25:29.683Z,95977.50
2023-05-17T09:28:02.858Z,95973.53
2023-05-17T09:30:38.074Z,95981.50
2023-05-17T09:33:13.970Z,95980.31
2023-05-17T09:35:48.913Z,95981.78
2023-05-17T09:38:27.606Z,95981.44
2023-05-17T09:41:02.615Z,95969.91
2023-05-17T09:43:34.396Z,95981.31
2023-05-17T09:46:05.769Z,95974.22
2023-05-17T09:48:38.881Z,95973.00
2023-05-17T09:51:10.937Z,95972.94
2023-05-17T09:53:42.792Z,95978.47
2023-05-17T09:56:14.810Z,95979.72
2023-05-17T09:58:46.352Z,95983.66
2023-05-17T10:01:19.424Z,95976.59
2023-05-17T10:03:51.495Z,95977.28
2023-05-17T10:06:38.355Z,95975.47
2023-05-17T10:09:15.975Z,95964.47
2023-05-17T10:11:47.623Z,95975.41
2023-05-17T10:14:31.776Z,95973.53
2023-05-17T10:17:03.684Z,95974.41
2023-05-17T10:19:35.733Z,95972.88
2023-05-17T10:22:21.929Z,95973.59
2023-05-17T10:24:56.006Z,95964.13
2023-05-17T10:27:28.373Z,95969.91
2023-05-17T10:30:00.195Z,95971.69
2023-05-17T10:32:33.186Z,95963.94
2023-05-17T10:35:12.035Z,95962.59
2023-05-17T10:37:43.866Z,95966.81
2023-05-17T10:40:17.514Z,95962.66
2023-05-17T10:42:54.960Z,95963.53
2023-05-17T10:45:28.508Z,95959.41
2023-05-17T10:48:11.716Z,95958.47
2023-05-17T10:50:54.352Z,95957.16
2023-05-17T10:53:26.971Z,95965.75
2023-05-17T10:55:58.746Z,95962.47
2023-05-17T10:58:31.371Z,95967.94
2023-05-17T11:01:07.645Z,95954.72
2023-05-17T11:03:39.846Z,95962.63
2023-05-17T11:06:25.205Z,95953.63
2023-05-17T11:09:08.522Z,95953.00
2023-05-17T11:12:00.266Z,95947.03
2023-05-17T11:14:58.053Z,95937.69
2023-05-17T11:17:46.533Z,95935.34
2023-05-17T11:20:24.541Z,95937.28
2023-05-17T11:23:00.170Z,95933.88
2023-05-17T11:25:36.403Z,95930.78
2023-05-17T11:28:09.464Z,95929.00
2023-05-17T11:30:42.152Z,95929.78
2023-05-17T11:33:29.252Z,95932.09
2023-05-17T11:36:15.857Z,95929.91
2023-05-17T11:38:55.213Z,95935.31
2023-05-17T11:41:38.018Z,95939.78
2023-05-17T11:44:10.424Z,95943.34
2023-05-17T11:46:44.001Z,95944.97
2023-05-17T11:49:26.876Z,95945.88
2023-05-17T11:52:06.184Z,95950.75
2023-05-17T11:54:38.778Z,95957.16
2023-05-17T11:57:11.764Z,95951.25
2023-05-17T11:59:43.494Z,95941.06
2023-05-17T12:02:29.838Z,95946.94
2023-05-17T12:05:01.403Z,95939.66
2023-05-17T12:07:34.945Z,95944.25
2023-05-17T12:10:07.088Z,95951.56
2023-05-17T12:12:38.596Z,95940.78
2023-05-17T12:15:12.000Z,95941.38
2023-05-17T12:17:45.496Z,95940.00
2023-05-17T12:20:17.360Z,95939.88
2023-05-17T12:22:53.451Z,95942.69
2023-05-17T12:25:29.624Z,95945.44
2023-05-17T12:28:22.447Z,95948.53
2023-05-17T12:30:58.052Z,95941.63
2023-05-17T12:33:31.502Z,95947.75
2023-05-17T12:36:04.139Z,95946.47
2023-05-17T12:38:36.404Z,95945.31
2023-05-17T12:41:08.776Z,95939.13
2023-05-17T12:43:40.657Z,95944.16
2023-05-17T12:46:13.631Z,95945.44
2023-05-17T12:48:45.305Z,95936.31
2023-05-17T12:51:16.785Z,95932.44
2023-05-17T12:53:54.089Z,95935.88
2023-05-17T12:56:28.864Z,95925.47
2023-05-17T12:59:04.744Z,95930.91
2023-05-17T13:01:40.304Z,95932.84
2023-05-17T13:04:12.387Z,95938.19
2023-05-17T13:06:54.179Z,95932.44
2023-05-17T13:09:26.860Z,95937.84
2023-05-17T13:11:59.404Z,95933.25
2023-05-17T13:14:37.190Z,95940.13
2023-05-17T13:17:09.604Z,95945.47
2023-05-17T13:19:41.638Z,95937.78
2023-05-17T13:22:13.811Z,95936.28
2023-05-17T13:24:45.347Z,95942.81
2023-05-17T13:27:17.221Z,95933.41
2023-05-17T13:29:48.603Z,95934.09
2023-05-17T13:32:21.139Z,95937.31
2023-05-17T13:34:52.570Z,95940.44
2023-05-17T13:37:24.499Z,95935.16
2023-05-17T13:39:56.877Z,95930.94
2023-05-17T13:42:29.026Z,95933.59
2023-05-17T13:45:02.520Z,95932.44
2023-05-17T13:47:35.108Z,95935.88
2023-05-17T13:50:06.993Z,95935.91
2023-05-17T13:52:38.695Z,95933.94
2023-05-17T13:55:10.265Z,95947.75
2023-05-17T13:57:43.789Z,95938.19
2023-05-17T14:00:16.299Z,95946.94
2023-05-17T14:02:50.266Z,95940.47
2023-05-17T14:05:21.967Z,95939.72
2023-05-17T14:07:53.548Z,95936.97
2023-05-17T14:10:24.992Z,95942.66
2023-05-17T14:12:56.669Z,95936.56
2023-05-17T14:15:30.378Z,95939.19
2023-05-17T14:18:02.185Z,95936.91
2023-05-17T14:20:38.016Z,95937.75
2023-05-17T14:23:09.492Z,95933.16
2023-05-17T14:25:43.667Z,95939.34
2023-05-17T14:28:19.536Z,95930.16
2023-05-17T14:30:52.430Z,95925.94
2023-05-17T14:33:24.185Z,95920.19
2023-05-17T14:35:55.902Z,95922.06
2023-05-17T14:38:28.717Z,95934.69
2023-05-17T14:41:03.438Z,95935.84
2023-05-17T14:43:34.933Z,95933.38
2023-05-17T14:46:06.862Z,95934.25
2023-05-17T14:48:38.420Z,95939.59
2023-05-17T14:51:09.907Z,95935.78
2023-05-17T14:53:41.431Z,95928.59
2023-05-17T14:56:15.136Z,95938.22
2023-05-17T14:58:47.392Z,95928.03
2023-05-17T15:01:20.747Z,95936.94
2023-05-17T15:03:52.303Z,95934.75
2023-05-17T15:06:25.881Z,95930.50
2023-05-17T15:08:57.455Z,95930.81
2023-05-17T15:11:29.421Z,95921.78
2023-05-17T15:14:01.932Z,95913.56
2023-05-17T15:16:34.484Z,95924.72
2023-05-17T15:19:06.591Z,95915.50
2023-05-17T15:21:39.389Z,95919.97
2023-05-17T15:24:13.329Z,95923.63
2023-05-17T15:26:46.162Z,95931.47
2023-05-17T15:29:17.657Z,95937.66
2023-05-17T15:31:49.149Z,95937.50
2023-05-17T15:34:20.712Z,95944.25
2023-05-17T15:36:52.868Z,95942.22
2023-05-17T15:39:24.414Z,95945.75
2023-05-17T15:41:56.002Z,95949.06
2023-05-17T15:44:27.427Z,95942.69
2023-05-17T15:47:01.501Z,95943.19
2023-05-17T15:49:35.291Z,95947.03
2023-05-17T15:52:06.881Z,95947.81
2023-05-17T15:54:38.686Z,95949.66
2023-05-17T15:57:10.069Z,95961.78
2023-05-17T15:59:41.620Z,95950.31
2023-05-17T16:02:13.317Z,95952.81
2023-05-17T16:04:44.891Z,95953.63
2023-05-17T16:07:17.229Z,95950.41
2023-05-17T16:09:49.177Z,95956.94
2023-05-17T16:12:23.509Z,95957.31
2023-05-17T16:14:54.972Z,95950.88
2023-05-17T16:17:26.889Z,95956.97
2023-05-17T16:19:58.435Z,95955.03
2023-05-17T16:22:29.941Z,95961.16
2023-05-17T16:25:01.315Z,95961.09
2023-05-17T16:27:32.680Z,95965.50
2023-05-17T16:30:04.433Z,95966.03
2023-05-17T16:32:35.980Z,95972.94
2023-05-17T16:35:07.758Z,95978.53
2023-05-17T16:37:39.478Z,95976.63
2023-05-17T16:40:11.072Z,95978.53
2023-05-17T16:42:42.931Z,95979.28
2023-05-17T16:45:14.424Z,95983.06
2023-05-17T16:47:46.033Z,95982.25
2023-05-17T16:50:17.946Z,95985.28
2023-05-17T16:52:51.009Z,95990.28
2023-05-17T16:55:24.880Z,95993.41
2023-05-17T16:57:56.759Z,95996.53
2023-05-17T17:00:30.032Z,95998.69
2023-05-17T17:03:01.917Z,96001.38
2023-05-17T17:05:34.964Z,96000.34
2023-05-17T17:08:07.399Z,95995.53
2023-05-17T17:10:38.925Z,95998.13
2023-05-17T17:13:10.414Z,96002.03
2023-05-17T17:15:42.342Z,95996.34
2023-05-17T17:18:14.142Z,96002.84
2023-05-17T17:20:51.302Z,96005.53
2023-05-17T17:23:22.882Z,96004.91
2023-05-17T17:25:54.539Z,96008.72
2023-05-17T17:28:26.097Z,96003.56
2023-05-17T17:30:58.876Z,96017.09
2023-05-17T17:33:30.285Z,96012.88
2023-05-17T17:36:07.761Z,96022.41
2023-05-17T17:38:39.234Z,96019.09
2023-05-17T17:41:10.742Z,96028.59
2023-05-17T17:43:43.103Z,96022.94
2023-05-17T17:46:14.556Z,96020.72
2023-05-17T17:48:46.012Z,96018.81
2023-05-17T17:51:17.692Z,96017.97
2023-05-17T17:53:49.078Z,96027.50
2023-05-17T17:56:23.749Z,96026.69
2023-05-17T17:58:57.162Z,96034.19
2023-05-17T18:01:31.026Z,96041.00
2023-05-17T18:04:04.764Z,96037.13
2023-05-17T18:06:37.031Z,96044.22
2023-05-17T18:09:10.567Z,96044.50
2023-05-17T18:11:42.285Z,96048.81
2023-05-17T18:14:15.261Z,96051.28
2023-05-17T18:16:46.929Z,96040.16
2023-05-17T18:19:18.955Z,96044.41
2023-05-17T18:21:51.047Z,96053.41
2023-05-17T18:24:22.500Z,96054.69
2023-05-17T18:26:53.925Z,96056.59
2023-05-17T18:29:25.629Z,96057.84
2023-05-17T18:32:00.440Z,96060.19
2023-05-17T18:34:33.110Z,96068.53
2023-05-17T18:37:05.976Z,96067.56
2023-05-17T18:39:39.452Z,96074.53
2023-05-17T18:42:15.438Z,96075.31
2023-05-17T18:44:47.203Z,96069.47
2023-05-17T18:47:19.588Z,96077.28
2023-05-17T18:49:53.127Z,96077.19
2023-05-17T18:52:24.584Z,96083.03
2023-05-17T18:54:56.027Z,96082.63
2023-05-17T18:57:27.463Z,96082.53
2023-05-17T19:00:00.152Z,96080.53
2023-05-17T19:02:31.688Z,96081.28
2023-05-17T19:05:03.318Z,96082.94
2023-05-17T19:07:35.510Z,96085.34
2023-05-17T19:10:07.851Z,96090.91
2023-05-17T19:12:39.351Z,96085.75
2023-05-17T19:15:11.705Z,96088.22
2023-05-17T19:17:43.285Z,96090.19
2023-05-17T19:20:14.800Z,96090.72
2023-05-17T19:22:47.266Z,96107.25
2023-05-17T19:25:20.846Z,96101.44
2023-05-17T19:27:52.920Z,96104.69
2023-05-17T19:30:25.217Z,96109.59
2023-05-17T19:32:57.042Z,96109.59
2023-05-17T19:35:28.565Z,96113.25
2023-05-17T19:38:00.591Z,96113.19
2023-05-17T19:40:33.035Z,96119.13
2023-05-17T19:43:05.730Z,96125.13
2023-05-17T19:45:37.436Z,96119.78
2023-05-17T19:48:08.944Z,96118.03
2023-05-17T19:50:41.865Z,96125.00
2023-05-17T19:53:13.495Z,96118.97
2023-05-17T19:55:45.007Z,96120.50
2023-05-17T19:58:18.511Z,96120.44
2023-05-17T20:00:49.930Z,96114.75
2023-05-17T20:03:22.478Z,96122.06
2023-05-17T20:05:55.501Z,96121.72
2023-05-17T20:08:27.236Z,96112.41
2023-05-17T20:11:01.301Z,96113.94
2023-05-17T20:13:34.172Z,96119.69
2023-05-17T20:16:12.308Z,96115.91
2023-05-17T20:18:44.367Z,96116.78
2023-05-17T20:21:19.160Z,96120.88
2023-05-17T20:23:56.913Z,96118.22
2023-05-17T20:26:31.860Z,96127.34
2023-05-17T20:29:05.667Z,96121.69
2023-05-17T20:31:37.197Z,96126.22
2023-05-17T20:34:08.637Z,96124.34
2023-05-17T20:36:41.738Z,96127.03
2023-05-17T20:39:16.199Z,96136.41
2023-05-17T20:41:55.325Z,96127.22
2023-05-17T20:44:26.747Z,96137.00
2023-05-17T20:46:58.420Z,96135.47
2023-05-17T20:49:29.890Z,96131.59
2023-05-17T20:52:02.930Z,96133.41
2023-05-17T20:54:34.422Z,96134.44
2023-05-17T20:57:08.798Z,96134.69
2023-05-17T20:59:40.914Z,96131.19
2023-05-17T21:02:12.341Z,96136.44
2023-05-17T21:04:45.103Z,96133.69
2023-05-17T21:07:19.999Z,96134.03
2023-05-17T21:09:51.559Z,96134.03
2023-05-17T21:12:24.065Z,96133.25
2023-05-17T21:15:14.444Z,96135.94
2023-05-17T21:17:47.505Z,96132.03
2023-05-17T21:20:19.419Z,96127.84
2023-05-17T21:22:52.984Z,96137.72
2023-05-17T21:25:24.549Z,96134.94
2023-05-17T21:27:55.909Z,96135.31
2023-05-17T21:30:27.358Z,96141.22
2023-05-17T21:33:01.213Z,96130.03
2023-05-17T21:35:32.835Z,96140.69
2023-05-17T21:38:05.259Z,96134.09
2023-05-17T21:40:37.234Z,96135.94
2023-05-17T21:43:09.909Z,96136.56
2023-05-17T21:45:41.845Z,96131.13
2023-05-17T21:48:13.360Z,96135.97
2023-05-17T21:50:45.084Z,96120.75
2023-05-17T21:53:16.660Z,96127.88
2023-05-17T21:56:01.395Z,96122.09
2023-05-17T21:58:33.743Z,96127.34
2023-05-17T22:01:05.357Z,96131.91
2023-05-17T22:03:36.814Z,96125.00
2023-05-17T22:06:08.435Z,96125.34
2023-05-17T22:08:42.496Z,96123.81
2023-05-17T22:11:14.102Z,96129.06
2023-05-17T22:13:46.720Z,96122.06
2023-05-17T22:16:19.263Z,96123.53
2023-05-17T22:18:53.478Z,96115.91
2023-05-17T22:21:25.083Z,96116.06
2023-05-17T22:23:56.660Z,96122.38
2023-05-17T22:26:28.105Z,96122.28
2023-05-17T22:28:59.616Z,96119.63
2023-05-17T22:31:31.644Z,96112.84
2023-05-17T22:34:03.618Z,96116.28
2023-05-17T22:36:35.010Z,96109.53
2023-05-17T22:39:06.405Z,96100.41
2023-05-17T22:41:37.789Z,96109.59
2023-05-17T22:44:09.164Z,96107.91
2023-05-17T22:46:42.040Z,96097.69
2023-05-17T22:49:13.566Z,96101.66
2023-05-17T22:51:44.946Z,96098.31
2023-05-17T22:54:16.352Z,96096.84
2023-05-17T22:56:47.729Z,96093.84
2023-05-17T22:59:19.170Z,96090.84
2023-05-17T23:01:50.801Z,96090.06
2023-05-17T23:04:26.164Z,96084.41
2023-05-17T23:07:03.741Z,96079.50
2023-05-17T23:09:40.310Z,96079.91
2023-05-17T23:12:13.953Z,96076.91
2023-05-17T23:14:45.564Z,96080.28
2023-05-17T23:17:17.169Z,96077.97
2023-05-17T23:19:48.562Z,96068.41
2023-05-17T23:22:20.001Z,96070.22
2023-05-17T23:24:51.448Z,96068.59
2023-05-17T23:27:22.969Z,96066.84
2023-05-17T23:29:55.117Z,96067.44
2023-05-17T23:32:26.510Z,96060.81
2023-05-17T23:35:04.254Z,96054.88
2023-05-17T23:37:36.541Z,96055.47
2023-05-17T23:40:11.365Z,96049.63
2023-05-17T23:42:42.760Z,96048.75
2023-05-17T23:45:14.277Z,96053.63
2023-05-17T23:47:47.519Z,96054.66
2023-05-17T23:50:19.007Z,96053.78
2023-05-17T23:52:50.387Z,96055.50
2023-05-17T23:55:22.668Z,96049.63
2023-05-17T23:57:54.103Z,96051.41
